Buoy 64528

sailwx.info

Track history (hours):
 
Tides and Currents Weather Stations Pressure Air Temp Water Temp Dewpoint Dewpoint Depression Visibility Wind Speed Wind Dir Waves Ship Positions

Drifting buoy 64528

Last reported at 2017-Dec-16 01:00 UTC. Time now 2017-Dec-16 01:44 UTC.
Position N 73°36' E 041°35'.

Barometer 999.6 mb
Water temperature 2.5 ° C

Date/timePositionNaut miles runAvg speedWind from/ knotsBaromVisibWave heightAir tempDewpointWater temp
2017-Dec-16 01:00N 73°36' E 041°35'1 0.6 999.6 2.5
2017-Dec-16 00:00N 73°35' E 041°35'0 0.0 999.5 2.4
2017-Dec-15 23:00N 73°35' E 041°35'0 0.0 999.6 2.4
2017-Dec-15 22:00N 73°35' E 041°35'0 0.0 999.4 2.4
2017-Dec-15 21:00N 73°35' E 041°35'0 0.0 999.0 2.4
2017-Dec-15 20:00N 73°35' E 041°35'0 0.0 998.7 2.4
2017-Dec-15 19:00N 73°35' E 041°35'0 0.2 998.1 2.4
2017-Dec-15 18:00N 73°35' E 041°35'1 0.6 997.4 2.4
2017-Dec-15 17:00N 73°36' E 041°35'0 0.2 996.8 2.3
2017-Dec-15 16:00N 73°36' E 041°35'0 0.2 995.8 2.2
2017-Dec-15 15:00N 73°36' E 041°34'0 0.0 995.0 2.2
2017-Dec-15 14:00N 73°36' E 041°34'1 0.7 994.0 2.2
2017-Dec-15 13:00N 73°37' E 041°33'0 0.2 993.2 2.2
2017-Dec-15 12:00N 73°37' E 041°32'6 0.1 992.4 2.3
2017-Dec-13 16:00N 73°31' E 041°44'1 0.6 983.9 2.3
2017-Dec-13 15:00N 73°31' E 041°45'0 0.0 984.7 2.3
2017-Dec-13 14:00N 73°31' E 041°45'1 0.6 985.7 2.3
2017-Dec-13 13:00N 73°30' E 041°45'0 0.2 986.9 2.3
2017-Dec-13 12:00N 73°30' E 041°44'1 0.6 987.8 2.3
2017-Dec-13 11:00N 73°29' E 041°44'0 0.0 989.1 2.3
2017-Dec-13 10:00N 73°29' E 041°44'1 0.6 990.4 2.3
2017-Dec-13 09:00N 73°29' E 041°44'0 0.0 991.6 2.3
2017-Dec-13 08:00N 73°29' E 041°44'1 0.6 992.5 2.3
2017-Dec-13 07:00N 73°28' E 041°45'0 0.0 993.3 2.3
2017-Dec-13 06:00N 73°28' E 041°45'0 0.2 994.1 2.3
2017-Dec-13 05:00N 73°28' E 041°46'1 0.6 995.0 2.3
2017-Dec-13 04:00N 73°28' E 041°46'0 0.0 995.6 2.3
2017-Dec-13 03:00N 73°28' E 041°46'0 0.2 996.4 2.3
2017-Dec-13 02:00N 73°28' E 041°45'0 0.0 997.3 2.3
2017-Dec-13 01:00N 73°28' E 041°45'0 0.2 998.1 2.3
2017-Dec-13 00:00N 73°28' E 041°44'0 0.2 998.6 2.3
2017-Dec-12 23:00N 73°28' E 041°44'0 0.2 999.3 2.3
2017-Dec-12 22:00N 73°28' E 041°43'1 0.6 999.7 2.3
2017-Dec-12 21:00N 73°27' E 041°43'0 0.2 1000.5 2.3
2017-Dec-12 20:00N 73°27' E 041°44'0 0.2 1001.0 2.3
2017-Dec-12 19:00N 73°27' E 041°43'1 0.6 1001.7 2.3
2017-Dec-12 18:00N 73°26' E 041°43'0 0.0 1002.3 2.3
2017-Dec-12 17:00N 73°26' E 041°43'0 0.2 1003.3 2.3
2017-Dec-12 16:00N 73°26' E 041°43'1 0.6 1003.8 2.3
2017-Dec-12 15:00N 73°26' E 041°43'0 0.0 1004.4 2.3
2017-Dec-12 14:00N 73°26' E 041°43'0 0.2 1004.9 2.3
2017-Dec-12 13:00N 73°26' E 041°42'0 0.2 1005.2 2.3
2017-Dec-12 12:00N 73°26' E 041°41'0 0.2 1005.5 2.3
2017-Dec-12 11:00N 73°26' E 041°41'1 0.6 1005.7 2.3
2017-Dec-12 10:00N 73°25' E 041°41'0 0.2 1005.8 2.3
2017-Dec-12 09:00N 73°25' E 041°40'0 0.2 1005.8 2.3
2017-Dec-12 08:00N 73°25' E 041°40'1 0.6 1005.8 2.3
2017-Dec-12 07:00N 73°25' E 041°40'0 0.0 1005.5 2.3
2017-Dec-12 06:00N 73°25' E 041°40'0 0.2 1005.2 2.3
2017-Dec-12 05:00N 73°25' E 041°40'0 0.0 1004.9 2.3
2017-Dec-12 04:00N 73°25' E 041°40'1 0.6 1004.8 2.3
2017-Dec-12 03:00N 73°24' E 041°41'0 0.0 1004.7 2.3
2017-Dec-12 02:00N 73°24' E 041°41'0 0.2 1004.4 2.3
2017-Dec-12 01:00N 73°24' E 041°41'0 0.0 1004.2 2.3
2017-Dec-12 00:00N 73°24' E 041°41'0 0.0 1004.3 2.3
2017-Dec-11 23:00N 73°24' E 041°41'0 0.0 1004.3 2.3
2017-Dec-11 22:00N 73°24' E 041°41'1 0.6 1004.8 2.3
2017-Dec-11 21:00N 73°23' E 041°41'0 0.2 1005.4 2.3
2017-Dec-11 20:00N 73°23' E 041°42'1 0.6 1006.0 2.3
2017-Dec-11 19:00N 73°23' E 041°43'1 0.6 1007.0 2.3
2017-Dec-11 18:00N 73°22' E 041°43'1 0.6 1007.6 2.3
2017-Dec-11 17:00N 73°22' E 041°43'1 0.6 1008.4 2.3
2017-Dec-11 16:00N 73°21' E 041°43'1 0.6 1009.1 2.4
2017-Dec-11 15:00N 73°20' E 041°44'1 0.6 1009.7 2.4
2017-Dec-11 14:00N 73°20' E 041°44'0 0.2 1010.5 2.4
2017-Dec-11 13:00N 73°20' E 041°45'1 0.6 1011.5 2.5
2017-Dec-11 12:00N 73°19' E 041°46'1 0.6 1012.2 2.5
2017-Dec-11 11:00N 73°19' E 041°46'0 0.0 1012.8 2.5
2017-Dec-11 10:00N 73°19' E 041°46'1 0.6 1013.3 2.5
2017-Dec-11 09:00N 73°18' E 041°47'1 0.6 1013.9 2.5
2017-Dec-11 08:00N 73°17' E 041°47'1 0.6 1014.0 2.5
2017-Dec-11 07:00N 73°17' E 041°47'0 0.2 1014.0 2.5
2017-Dec-11 06:00N 73°17' E 041°48'1 0.7 1014.1 2.6
2017-Dec-11 05:00N 73°16' E 041°49'1 0.6 1014.2 2.6
2017-Dec-11 04:00N 73°16' E 041°50'1 0.7 1014.2 2.6
2017-Dec-11 03:00N 73°15' E 041°51'0 0.3 1014.3 2.6
2017-Dec-11 02:00N 73°15' E 041°52'1 0.6 1014.4 2.6
2017-Dec-11 01:00N 73°14' E 041°53'0 0.2 1014.3 2.6
2017-Dec-11 00:00N 73°14' E 041°53'0 0.2 1014.3 2.5
2017-Dec-10 23:00N 73°14' E 041°54'0 0.0 1014.3 2.5
2017-Dec-10 22:00N 73°14' E 041°54'1 0.6 1014.2 2.6
2017-Dec-10 21:00N 73°14' E 041°55'0 0.0 1014.0 2.6
2017-Dec-10 20:00N 73°14' E 041°55'1 0.6 1014.0 2.6
2017-Dec-10 19:00N 73°13' E 041°55'0 0.2 1013.9 2.6
2017-Dec-10 18:00N 73°13' E 041°55'1 0.6 1013.8 2.5
2017-Dec-10 17:00N 73°13' E 041°56'1 0.6 1014.0 2.5
2017-Dec-10 16:00N 73°12' E 041°56'0 0.3 1014.0 2.5
2017-Dec-10 15:00N 73°12' E 041°58'1 0.6 1014.3 2.5
2017-Dec-10 14:00N 73°11' E 041°58'1 0.6 1014.5 2.5
2017-Dec-10 13:00N 73°11' E 041°59'0 0.2 1014.9 2.5
2017-Dec-10 12:00N 73°11' E 041°59'0 0.2 1015.3 2.5
2017-Dec-10 11:00N 73°11' E 042°00'1 0.6 1015.4 2.5
2017-Dec-10 10:00N 73°10' E 042°00'0 0.2 1015.6 2.4
2017-Dec-10 09:00N 73°10' E 042°01'0 0.0 1015.9 2.4
2017-Dec-10 08:00N 73°10' E 042°01'0 0.2 1016.3 2.4
2017-Dec-10 07:00N 73°10' E 042°01'1 0.6 1016.3 2.4
2017-Dec-10 06:00N 73°10' E 042°02'0 0.2 1016.3 2.5
2017-Dec-10 05:00N 73°10' E 042°02'0 0.2 1016.3 2.4
2017-Dec-10 04:00N 73°10' E 042°03'0 0.2 1016.3 2.4
2017-Dec-10 03:00N 73°10' E 042°04'1 0.7 1016.6 2.4
2017-Dec-10 02:00N 73°09' E 042°05'0 0.2 1016.8 2.4
2017-Dec-10 01:00N 73°09' E 042°05'0 0.0 1017.0 2.3
2017-Dec-10 00:00N 73°09' E 042°05'0 0.2 1017.1 2.3
2017-Dec-09 23:00N 73°09' E 042°06'0 0.2 1017.3 2.3
2017-Dec-09 22:00N 73°09' E 042°07'0 0.2 1017.3 2.3
2017-Dec-09 21:00N 73°09' E 042°07'0 0.2 1017.5 2.2
2017-Dec-09 20:00N 73°09' E 042°08'0 0.2 1017.5 2.2
2017-Dec-09 19:00N 73°09' E 042°08'0 0.3 1017.2 2.2
2017-Dec-09 18:00N 73°09' E 042°10'0 0.2 1017.0 2.2
2017-Dec-09 17:00N 73°09' E 042°10'0 0.2 1017.3 2.2
2017-Dec-09 16:00N 73°09' E 042°11'1 0.6 1017.3 2.2
2017-Dec-09 15:00N 73°08' E 042°11'0 0.2 1017.3 2.3
2017-Dec-09 14:00N 73°08' E 042°12'0 0.3 1017.4 2.3
2017-Dec-09 13:00N 73°08' E 042°13'0 0.3 1017.5 2.3
2017-Dec-09 12:00N 73°08' E 042°14'0 0.2 1017.6 2.2
2017-Dec-09 11:00N 73°08' E 042°15'0 0.2 1017.6 2.2
2017-Dec-09 10:00N 73°08' E 042°16'0 0.2 1017.6 2.3
2017-Dec-09 09:00N 73°08' E 042°16'0 0.3 1017.7 2.2
2017-Dec-09 08:00N 73°08' E 042°17'0 0.2 1017.5 2.2
2017-Dec-09 07:00N 73°08' E 042°18'0 0.3 1017.3 2.2
2017-Dec-09 06:00N 73°08' E 042°19'0 0.3 1017.4 2.3
2017-Dec-09 05:00N 73°08' E 042°20'0 0.3 1017.3 2.3
2017-Dec-09 04:00N 73°08' E 042°22'0 0.3 1017.2 2.3
2017-Dec-09 03:00N 73°08' E 042°23'0 0.2 1017.3 2.3
2017-Dec-09 02:00N 73°08' E 042°23'0 0.2 1017.3 2.3
2017-Dec-09 01:00N 73°08' E 042°24'0 0.2 1017.1 2.3
2017-Dec-09 00:00N 73°08' E 042°25'0 0.2 1017.0 2.2
2017-Dec-08 23:00N 73°08' E 042°25'0 0.0 1016.9 2.3
2017-Dec-08 22:00N 73°08' E 042°25'0 0.0 1016.8 2.2
2017-Dec-08 21:00N 73°08' E 042°25'0 0.0 1016.6 2.3
2017-Dec-08 20:00N 73°08' E 042°25'0 0.2 1016.2 2.3
2017-Dec-08 19:00N 73°08' E 042°26'0 0.0 1015.9 2.3
2017-Dec-08 18:00N 73°08' E 042°26'0 0.2 1015.5 2.3
2017-Dec-08 17:00N 73°08' E 042°26'1 0.6 1015.3 2.3
2017-Dec-08 16:00N 73°08' E 042°26'0 0.2 1014.8 2.3
2017-Dec-08 15:00N 73°08' E 042°27'0 0.2 1014.5 2.3
2017-Dec-08 14:00N 73°08' E 042°28'1 0.6 1014.5 2.3
2017-Dec-08 13:00N 73°08' E 042°28'0 0.0 1014.4 2.3
2017-Dec-08 12:00N 73°08' E 042°28'0 0.2 1013.9 2.3
2017-Dec-08 11:00N 73°08' E 042°29'0 0.2 1013.3 2.3
2017-Dec-08 10:00N 73°08' E 042°29'0 0.2 1013.1 2.3
2017-Dec-08 09:00N 73°08' E 042°30'0 0.2 1013.0 2.3
2017-Dec-08 08:00N 73°08' E 042°31'1 0.6 1013.0 2.3
2017-Dec-08 07:00N 73°09' E 042°31'0 0.3 1012.8 2.3
2017-Dec-08 06:00N 73°09' E 042°32'0 0.2 1012.4 2.3
2017-Dec-08 05:00N 73°09' E 042°33'1 0.7 1012.4 2.3
2017-Dec-08 04:00N 73°10' E 042°34'0 0.2 1012.4 2.3
2017-Dec-08 03:00N 73°10' E 042°35'0 0.3 1012.0 2.3
2017-Dec-08 02:00N 73°10' E 042°36'0 0.2 1011.7 2.3
2017-Dec-08 01:00N 73°10' E 042°37'1 0.6 1011.6 2.3
2017-Dec-08 00:00N 73°10' E 042°37'0 0.2 1011.6 2.3
2017-Dec-07 23:00N 73°10' E 042°38'0 0.0 1011.8 2.3
2017-Dec-07 22:00N 73°10' E 042°38'1 0.6 1012.0 2.3
2017-Dec-07 21:00N 73°11' E 042°38'0 0.2 1012.0 2.3
2017-Dec-07 20:00N 73°11' E 042°39'0 0.2 1012.1 2.3
2017-Dec-07 19:00N 73°11' E 042°40'0 0.3 1012.0 2.4
2017-Dec-07 18:00N 73°11' E 042°41'0 0.2 1011.8 2.4
2017-Dec-07 17:00N 73°11' E 042°41'1 0.7 1011.7 2.4
2017-Dec-07 16:00N 73°11' E 042°43'0 0.3 1011.5 2.4
2017-Dec-07 15:00N 73°11' E 042°44'1 0.6 1011.5 2.4
2017-Dec-07 14:00N 73°12' E 042°44'0 0.0 1011.4 2.5
2017-Dec-07 13:00N 73°12' E 042°44'1 0.6 1011.1 2.5
2017-Dec-07 12:00N 73°11' E 042°45'0 0.0 1010.8 2.4
2017-Dec-07 11:00N 73°11' E 042°45'0 0.2 1010.5 2.4
2017-Dec-07 10:00N 73°11' E 042°46'0 0.0 1010.1 2.4
2017-Dec-07 09:00N 73°11' E 042°46'0 0.2 1009.5 2.4
2017-Dec-07 08:00N 73°11' E 042°46'1 0.7 1009.2 2.3
2017-Dec-07 07:00N 73°11' E 042°47'0 0.2 1008.5 2.3
2017-Dec-07 06:00N 73°11' E 042°48'0 0.2 1007.9 2.3
2017-Dec-07 05:00N 73°11' E 042°49'0 0.2 1007.3 2.3
2017-Dec-07 04:00N 73°11' E 042°49'0 0.2 1006.8 2.3
2017-Dec-07 03:00N 73°11' E 042°50'1 0.7 1006.5 2.4
2017-Dec-07 02:00N 73°10' E 042°51'0 0.2 1005.8 2.4
2017-Dec-07 01:00N 73°10' E 042°52'1 0.6 1005.3 2.4
2017-Dec-07 00:00N 73°10' E 042°52'1 0.6 1004.8 2.3
2017-Dec-06 23:00N 73°09' E 042°53'0 0.2 1004.3 2.3
2017-Dec-06 22:00N 73°09' E 042°53'1 0.6 1003.7 2.3
2017-Dec-06 21:00N 73°08' E 042°54'1 0.6 1002.9 2.4
2017-Dec-06 20:00N 73°08' E 042°54'1 0.6 1002.3 2.4
2017-Dec-06 19:00N 73°07' E 042°54'1 0.6 1001.7 2.6
2017-Dec-06 18:00N 73°07' E 042°53'1 0.6 1000.9 2.7
2017-Dec-06 17:00N 73°06' E 042°53'0 0.0 1000.6 2.6
2017-Dec-06 16:00N 73°06' E 042°53'1 0.6 1000.1 2.6
2017-Dec-06 15:00N 73°05' E 042°53'0 0.2 999.7 2.6
2017-Dec-06 14:00N 73°05' E 042°52'0 0.0 999.2 2.7
2017-Dec-06 13:00N 73°05' E 042°52'1 0.6 998.7 2.7
2017-Dec-06 12:00N 73°05' E 042°52'0 0.2 998.2 2.7
2017-Dec-06 11:00N 73°05' E 042°52'0 0.2 997.7 2.7
2017-Dec-06 10:00N 73°05' E 042°51'0 0.2 997.4 2.7
2017-Dec-06 09:00N 73°05' E 042°50'1 0.7 996.8 2.7
2017-Dec-06 08:00N 73°04' E 042°49'0 0.2 996.4 2.8
2017-Dec-06 07:00N 73°04' E 042°49'0 0.2 996.0 2.8
2017-Dec-06 06:00N 73°04' E 042°48'0 0.2 995.8 2.8
2017-Dec-06 05:00N 73°04' E 042°47'0 0.3 995.6 2.8
2017-Dec-06 04:00N 73°04' E 042°46'0 0.2 995.3 2.8
2017-Dec-06 03:00N 73°04' E 042°46'1 0.6 994.8 2.8
2017-Dec-06 02:00N 73°04' E 042°46'0 0.0 994.4 2.8
2017-Dec-06 01:00N 73°04' E 042°46'   994.1 2.8
Track history (hours):
 
Tides and Currents Weather Stations Pressure Air Temp Water Temp Dewpoint Dewpoint Depression Visibility Wind Speed Wind Dir Waves Ship Positions

Drifting buoy 64528

Last reported at 2017-Dec-16 01:00 UTC. Time now 2017-Dec-16 01:44 UTC.
Position N 73°36' E 041°35'.

Barometer 999.6 mb
Water temperature 2.5 ° C

Date/timePositionNaut miles runAvg speedWind from/ knotsBaromVisibWave heightAir tempDewpointWater temp
2017-Dec-16 01:00N 73°36' E 041°35'1 0.6 999.6 2.5
2017-Dec-16 00:00N 73°35' E 041°35'0 0.0 999.5 2.4
2017-Dec-15 23:00N 73°35' E 041°35'0 0.0 999.6 2.4
2017-Dec-15 22:00N 73°35' E 041°35'0 0.0 999.4 2.4
2017-Dec-15 21:00N 73°35' E 041°35'0 0.0 999.0 2.4
2017-Dec-15 20:00N 73°35' E 041°35'0 0.0 998.7 2.4
2017-Dec-15 19:00N 73°35' E 041°35'0 0.2 998.1 2.4
2017-Dec-15 18:00N 73°35' E 041°35'1 0.6 997.4 2.4
2017-Dec-15 17:00N 73°36' E 041°35'0 0.2 996.8 2.3
2017-Dec-15 16:00N 73°36' E 041°35'0 0.2 995.8 2.2
2017-Dec-15 15:00N 73°36' E 041°34'0 0.0 995.0 2.2
2017-Dec-15 14:00N 73°36' E 041°34'1 0.7 994.0 2.2
2017-Dec-15 13:00N 73°37' E 041°33'0 0.2 993.2 2.2
2017-Dec-15 12:00N 73°37' E 041°32'6 0.1 992.4 2.3
2017-Dec-13 16:00N 73°31' E 041°44'1 0.6 983.9 2.3
2017-Dec-13 15:00N 73°31' E 041°45'0 0.0 984.7 2.3
2017-Dec-13 14:00N 73°31' E 041°45'1 0.6 985.7 2.3
2017-Dec-13 13:00N 73°30' E 041°45'0 0.2 986.9 2.3
2017-Dec-13 12:00N 73°30' E 041°44'1 0.6 987.8 2.3
2017-Dec-13 11:00N 73°29' E 041°44'0 0.0 989.1 2.3
2017-Dec-13 10:00N 73°29' E 041°44'1 0.6 990.4 2.3
2017-Dec-13 09:00N 73°29' E 041°44'0 0.0 991.6 2.3
2017-Dec-13 08:00N 73°29' E 041°44'1 0.6 992.5 2.3
2017-Dec-13 07:00N 73°28' E 041°45'0 0.0 993.3 2.3
2017-Dec-13 06:00N 73°28' E 041°45'0 0.2 994.1 2.3
2017-Dec-13 05:00N 73°28' E 041°46'1 0.6 995.0 2.3
2017-Dec-13 04:00N 73°28' E 041°46'0 0.0 995.6 2.3
2017-Dec-13 03:00N 73°28' E 041°46'0 0.2 996.4 2.3
2017-Dec-13 02:00N 73°28' E 041°45'0 0.0 997.3 2.3
2017-Dec-13 01:00N 73°28' E 041°45'0 0.2 998.1 2.3
2017-Dec-13 00:00N 73°28' E 041°44'0 0.2 998.6 2.3
2017-Dec-12 23:00N 73°28' E 041°44'0 0.2 999.3 2.3
2017-Dec-12 22:00N 73°28' E 041°43'1 0.6 999.7 2.3
2017-Dec-12 21:00N 73°27' E 041°43'0 0.2 1000.5 2.3
2017-Dec-12 20:00N 73°27' E 041°44'0 0.2 1001.0 2.3
2017-Dec-12 19:00N 73°27' E 041°43'1 0.6 1001.7 2.3
2017-Dec-12 18:00N 73°26' E 041°43'0 0.0 1002.3 2.3
2017-Dec-12 17:00N 73°26' E 041°43'0 0.2 1003.3 2.3
2017-Dec-12 16:00N 73°26' E 041°43'1 0.6 1003.8 2.3
2017-Dec-12 15:00N 73°26' E 041°43'0 0.0 1004.4 2.3
2017-Dec-12 14:00N 73°26' E 041°43'0 0.2 1004.9 2.3
2017-Dec-12 13:00N 73°26' E 041°42'0 0.2 1005.2 2.3
2017-Dec-12 12:00N 73°26' E 041°41'0 0.2 1005.5 2.3
2017-Dec-12 11:00N 73°26' E 041°41'1 0.6 1005.7 2.3
2017-Dec-12 10:00N 73°25' E 041°41'0 0.2 1005.8 2.3
2017-Dec-12 09:00N 73°25' E 041°40'0 0.2 1005.8 2.3
2017-Dec-12 08:00N 73°25' E 041°40'1 0.6 1005.8 2.3
2017-Dec-12 07:00N 73°25' E 041°40'0 0.0 1005.5 2.3
2017-Dec-12 06:00N 73°25' E 041°40'0 0.2 1005.2 2.3
2017-Dec-12 05:00N 73°25' E 041°40'0 0.0 1004.9 2.3
2017-Dec-12 04:00N 73°25' E 041°40'1 0.6 1004.8 2.3
2017-Dec-12 03:00N 73°24' E 041°41'0 0.0 1004.7 2.3
2017-Dec-12 02:00N 73°24' E 041°41'0 0.2 1004.4 2.3
2017-Dec-12 01:00N 73°24' E 041°41'0 0.0 1004.2 2.3
2017-Dec-12 00:00N 73°24' E 041°41'0 0.0 1004.3 2.3
2017-Dec-11 23:00N 73°24' E 041°41'0 0.0 1004.3 2.3
2017-Dec-11 22:00N 73°24' E 041°41'1 0.6 1004.8 2.3
2017-Dec-11 21:00N 73°23' E 041°41'0 0.2 1005.4 2.3
2017-Dec-11 20:00N 73°23' E 041°42'1 0.6 1006.0 2.3
2017-Dec-11 19:00N 73°23' E 041°43'1 0.6 1007.0 2.3
2017-Dec-11 18:00N 73°22' E 041°43'1 0.6 1007.6 2.3
2017-Dec-11 17:00N 73°22' E 041°43'1 0.6 1008.4 2.3
2017-Dec-11 16:00N 73°21' E 041°43'1 0.6 1009.1 2.4
2017-Dec-11 15:00N 73°20' E 041°44'1 0.6 1009.7 2.4
2017-Dec-11 14:00N 73°20' E 041°44'0 0.2 1010.5 2.4
2017-Dec-11 13:00N 73°20' E 041°45'1 0.6 1011.5 2.5
2017-Dec-11 12:00N 73°19' E 041°46'1 0.6 1012.2 2.5
2017-Dec-11 11:00N 73°19' E 041°46'0 0.0 1012.8 2.5
2017-Dec-11 10:00N 73°19' E 041°46'1 0.6 1013.3 2.5
2017-Dec-11 09:00N 73°18' E 041°47'1 0.6 1013.9 2.5
2017-Dec-11 08:00N 73°17' E 041°47'1 0.6 1014.0 2.5
2017-Dec-11 07:00N 73°17' E 041°47'0 0.2 1014.0 2.5
2017-Dec-11 06:00N 73°17' E 041°48'1 0.7 1014.1 2.6
2017-Dec-11 05:00N 73°16' E 041°49'1 0.6 1014.2 2.6
2017-Dec-11 04:00N 73°16' E 041°50'1 0.7 1014.2 2.6
2017-Dec-11 03:00N 73°15' E 041°51'0 0.3 1014.3 2.6
2017-Dec-11 02:00N 73°15' E 041°52'1 0.6 1014.4 2.6
2017-Dec-11 01:00N 73°14' E 041°53'0 0.2 1014.3 2.6
2017-Dec-11 00:00N 73°14' E 041°53'0 0.2 1014.3 2.5
2017-Dec-10 23:00N 73°14' E 041°54'0 0.0 1014.3 2.5
2017-Dec-10 22:00N 73°14' E 041°54'1 0.6 1014.2 2.6
2017-Dec-10 21:00N 73°14' E 041°55'0 0.0 1014.0 2.6
2017-Dec-10 20:00N 73°14' E 041°55'1 0.6 1014.0 2.6
2017-Dec-10 19:00N 73°13' E 041°55'0 0.2 1013.9 2.6
2017-Dec-10 18:00N 73°13' E 041°55'1 0.6 1013.8 2.5
2017-Dec-10 17:00N 73°13' E 041°56'1 0.6 1014.0 2.5
2017-Dec-10 16:00N 73°12' E 041°56'0 0.3 1014.0 2.5
2017-Dec-10 15:00N 73°12' E 041°58'1 0.6 1014.3 2.5
2017-Dec-10 14:00N 73°11' E 041°58'1 0.6 1014.5 2.5
2017-Dec-10 13:00N 73°11' E 041°59'0 0.2 1014.9 2.5
2017-Dec-10 12:00N 73°11' E 041°59'0 0.2 1015.3 2.5
2017-Dec-10 11:00N 73°11' E 042°00'1 0.6 1015.4 2.5
2017-Dec-10 10:00N 73°10' E 042°00'0 0.2 1015.6 2.4
2017-Dec-10 09:00N 73°10' E 042°01'0 0.0 1015.9 2.4
2017-Dec-10 08:00N 73°10' E 042°01'0 0.2 1016.3 2.4
2017-Dec-10 07:00N 73°10' E 042°01'1 0.6 1016.3 2.4
2017-Dec-10 06:00N 73°10' E 042°02'0 0.2 1016.3 2.5
2017-Dec-10 05:00N 73°10' E 042°02'0 0.2 1016.3 2.4
2017-Dec-10 04:00N 73°10' E 042°03'0 0.2 1016.3 2.4
2017-Dec-10 03:00N 73°10' E 042°04'1 0.7 1016.6 2.4
2017-Dec-10 02:00N 73°09' E 042°05'0 0.2 1016.8 2.4
2017-Dec-10 01:00N 73°09' E 042°05'0 0.0 1017.0 2.3
2017-Dec-10 00:00N 73°09' E 042°05'0 0.2 1017.1 2.3
2017-Dec-09 23:00N 73°09' E 042°06'0 0.2 1017.3 2.3
2017-Dec-09 22:00N 73°09' E 042°07'0 0.2 1017.3 2.3
2017-Dec-09 21:00N 73°09' E 042°07'0 0.2 1017.5 2.2
2017-Dec-09 20:00N 73°09' E 042°08'0 0.2 1017.5 2.2
2017-Dec-09 19:00N 73°09' E 042°08'0 0.3 1017.2 2.2
2017-Dec-09 18:00N 73°09' E 042°10'0 0.2 1017.0 2.2
2017-Dec-09 17:00N 73°09' E 042°10'0 0.2 1017.3 2.2
2017-Dec-09 16:00N 73°09' E 042°11'1 0.6 1017.3 2.2
2017-Dec-09 15:00N 73°08' E 042°11'0 0.2 1017.3 2.3
2017-Dec-09 14:00N 73°08' E 042°12'0 0.3 1017.4 2.3
2017-Dec-09 13:00N 73°08' E 042°13'0 0.3 1017.5 2.3
2017-Dec-09 12:00N 73°08' E 042°14'0 0.2 1017.6 2.2
2017-Dec-09 11:00N 73°08' E 042°15'0 0.2 1017.6 2.2
2017-Dec-09 10:00N 73°08' E 042°16'0 0.2 1017.6 2.3
2017-Dec-09 09:00N 73°08' E 042°16'0 0.3 1017.7 2.2
2017-Dec-09 08:00N 73°08' E 042°17'0 0.2 1017.5 2.2
2017-Dec-09 07:00N 73°08' E 042°18'0 0.3 1017.3 2.2
2017-Dec-09 06:00N 73°08' E 042°19'0 0.3 1017.4 2.3
2017-Dec-09 05:00N 73°08' E 042°20'0 0.3 1017.3 2.3
2017-Dec-09 04:00N 73°08' E 042°22'0 0.3 1017.2 2.3
2017-Dec-09 03:00N 73°08' E 042°23'0 0.2 1017.3 2.3
2017-Dec-09 02:00N 73°08' E 042°23'0 0.2 1017.3 2.3
2017-Dec-09 01:00N 73°08' E 042°24'0 0.2 1017.1 2.3
2017-Dec-09 00:00N 73°08' E 042°25'0 0.2 1017.0 2.2
2017-Dec-08 23:00N 73°08' E 042°25'0 0.0 1016.9 2.3
2017-Dec-08 22:00N 73°08' E 042°25'0 0.0 1016.8 2.2
2017-Dec-08 21:00N 73°08' E 042°25'0 0.0 1016.6 2.3
2017-Dec-08 20:00N 73°08' E 042°25'0 0.2 1016.2 2.3
2017-Dec-08 19:00N 73°08' E 042°26'0 0.0 1015.9 2.3
2017-Dec-08 18:00N 73°08' E 042°26'0 0.2 1015.5 2.3
2017-Dec-08 17:00N 73°08' E 042°26'1 0.6 1015.3 2.3
2017-Dec-08 16:00N 73°08' E 042°26'0 0.2 1014.8 2.3
2017-Dec-08 15:00N 73°08' E 042°27'0 0.2 1014.5 2.3
2017-Dec-08 14:00N 73°08' E 042°28'1 0.6 1014.5 2.3
2017-Dec-08 13:00N 73°08' E 042°28'0 0.0 1014.4 2.3
2017-Dec-08 12:00N 73°08' E 042°28'0 0.2 1013.9 2.3
2017-Dec-08 11:00N 73°08' E 042°29'0 0.2 1013.3 2.3
2017-Dec-08 10:00N 73°08' E 042°29'0 0.2 1013.1 2.3
2017-Dec-08 09:00N 73°08' E 042°30'0 0.2 1013.0 2.3
2017-Dec-08 08:00N 73°08' E 042°31'1 0.6 1013.0 2.3
2017-Dec-08 07:00N 73°09' E 042°31'0 0.3 1012.8 2.3
2017-Dec-08 06:00N 73°09' E 042°32'0 0.2 1012.4 2.3
2017-Dec-08 05:00N 73°09' E 042°33'1 0.7 1012.4 2.3
2017-Dec-08 04:00N 73°10' E 042°34'0 0.2 1012.4 2.3
2017-Dec-08 03:00N 73°10' E 042°35'0 0.3 1012.0 2.3
2017-Dec-08 02:00N 73°10' E 042°36'0 0.2 1011.7 2.3
2017-Dec-08 01:00N 73°10' E 042°37'1 0.6 1011.6 2.3
2017-Dec-08 00:00N 73°10' E 042°37'0 0.2 1011.6 2.3
2017-Dec-07 23:00N 73°10' E 042°38'0 0.0 1011.8 2.3
2017-Dec-07 22:00N 73°10' E 042°38'1 0.6 1012.0 2.3
2017-Dec-07 21:00N 73°11' E 042°38'0 0.2 1012.0 2.3
2017-Dec-07 20:00N 73°11' E 042°39'0 0.2 1012.1 2.3
2017-Dec-07 19:00N 73°11' E 042°40'0 0.3 1012.0 2.4
2017-Dec-07 18:00N 73°11' E 042°41'0 0.2 1011.8 2.4
2017-Dec-07 17:00N 73°11' E 042°41'1 0.7 1011.7 2.4
2017-Dec-07 16:00N 73°11' E 042°43'0 0.3 1011.5 2.4
2017-Dec-07 15:00N 73°11' E 042°44'1 0.6 1011.5 2.4
2017-Dec-07 14:00N 73°12' E 042°44'0 0.0 1011.4 2.5
2017-Dec-07 13:00N 73°12' E 042°44'1 0.6 1011.1 2.5
2017-Dec-07 12:00N 73°11' E 042°45'0 0.0 1010.8 2.4
2017-Dec-07 11:00N 73°11' E 042°45'0 0.2 1010.5 2.4
2017-Dec-07 10:00N 73°11' E 042°46'0 0.0 1010.1 2.4
2017-Dec-07 09:00N 73°11' E 042°46'0 0.2 1009.5 2.4
2017-Dec-07 08:00N 73°11' E 042°46'1 0.7 1009.2 2.3
2017-Dec-07 07:00N 73°11' E 042°47'0 0.2 1008.5 2.3
2017-Dec-07 06:00N 73°11' E 042°48'0 0.2 1007.9 2.3
2017-Dec-07 05:00N 73°11' E 042°49'0 0.2 1007.3 2.3
2017-Dec-07 04:00N 73°11' E 042°49'0 0.2 1006.8 2.3
2017-Dec-07 03:00N 73°11' E 042°50'1 0.7 1006.5 2.4
2017-Dec-07 02:00N 73°10' E 042°51'0 0.2 1005.8 2.4
2017-Dec-07 01:00N 73°10' E 042°52'1 0.6 1005.3 2.4
2017-Dec-07 00:00N 73°10' E 042°52'1 0.6 1004.8 2.3
2017-Dec-06 23:00N 73°09' E 042°53'0 0.2 1004.3 2.3
2017-Dec-06 22:00N 73°09' E 042°53'1 0.6 1003.7 2.3
2017-Dec-06 21:00N 73°08' E 042°54'1 0.6 1002.9 2.4
2017-Dec-06 20:00N 73°08' E 042°54'1 0.6 1002.3 2.4
2017-Dec-06 19:00N 73°07' E 042°54'1 0.6 1001.7 2.6
2017-Dec-06 18:00N 73°07' E 042°53'1 0.6 1000.9 2.7
2017-Dec-06 17:00N 73°06' E 042°53'0 0.0 1000.6 2.6
2017-Dec-06 16:00N 73°06' E 042°53'1 0.6 1000.1 2.6
2017-Dec-06 15:00N 73°05' E 042°53'0 0.2 999.7 2.6
2017-Dec-06 14:00N 73°05' E 042°52'0 0.0 999.2 2.7
2017-Dec-06 13:00N 73°05' E 042°52'1 0.6 998.7 2.7
2017-Dec-06 12:00N 73°05' E 042°52'0 0.2 998.2 2.7
2017-Dec-06 11:00N 73°05' E 042°52'0 0.2 997.7 2.7
2017-Dec-06 10:00N 73°05' E 042°51'0 0.2 997.4 2.7
2017-Dec-06 09:00N 73°05' E 042°50'1 0.7 996.8 2.7
2017-Dec-06 08:00N 73°04' E 042°49'0 0.2 996.4 2.8
2017-Dec-06 07:00N 73°04' E 042°49'0 0.2 996.0 2.8
2017-Dec-06 06:00N 73°04' E 042°48'0 0.2 995.8 2.8
2017-Dec-06 05:00N 73°04' E 042°47'0 0.3 995.6 2.8
2017-Dec-06 04:00N 73°04' E 042°46'0 0.2 995.3 2.8
2017-Dec-06 03:00N 73°04' E 042°46'1 0.6 994.8 2.8
2017-Dec-06 02:00N 73°04' E 042°46'0 0.0 994.4 2.8
2017-Dec-06 01:00N 73°04' E 042°46'   994.1 2.8

Dump ship's entire track history